createdAt,value
2018-05-10T00:00:07.417Z,951.49
2018-05-10T00:00:47.940Z,951.51
2018-05-10T00:01:28.474Z,951.48
2018-05-10T00:02:09.002Z,951.48
2018-05-10T00:02:49.529Z,951.5
2018-05-10T00:03:30.056Z,951.49
2018-05-10T00:04:10.584Z,951.48
2018-05-10T00:04:51.106Z,951.48
2018-05-10T00:05:31.643Z,951.49
2018-05-10T00:06:12.159Z,951.46
2018-05-10T00:06:52.692Z,951.51
2018-05-10T00:07:33.213Z,951.49
2018-05-10T00:08:13.741Z,951.48
2018-05-10T00:08:54.271Z,951.47
2018-05-10T00:09:34.794Z,951.49
2018-05-10T00:10:15.324Z,951.46
2018-05-10T00:10:55.861Z,951.45
2018-05-10T00:11:36.360Z,951.49
2018-05-10T00:12:16.846Z,951.42
2018-05-10T00:12:57.370Z,951.43
2018-05-10T00:13:37.892Z,951.43
2018-05-10T00:14:18.420Z,951.41
2018-05-10T00:14:58.958Z,951.41
2018-05-10T00:15:39.465Z,951.39
2018-05-10T00:16:19.993Z,951.37
2018-05-10T00:17:00.462Z,951.37
2018-05-10T00:17:40.966Z,951.33
2018-05-10T00:18:21.463Z,951.31
2018-05-10T00:19:01.965Z,951.31
2018-05-10T00:19:42.462Z,951.32
2018-05-10T00:20:22.946Z,951.33
2018-05-10T00:21:03.534Z,951.31
2018-05-10T00:21:43.986Z,951.34
2018-05-10T00:22:24.472Z,951.31
2018-05-10T00:23:05.001Z,951.3
2018-05-10T00:23:45.491Z,951.32
2018-05-10T00:24:26.190Z,951.34
2018-05-10T00:25:06.515Z,951.35
2018-05-10T00:25:47.038Z,951.35
2018-05-10T00:26:27.564Z,951.29
2018-05-10T00:27:08.084Z,951.35
2018-05-10T00:27:48.622Z,951.31
2018-05-10T00:28:29.139Z,951.35
2018-05-10T00:29:09.667Z,951.39
2018-05-10T00:29:50.195Z,951.36
2018-05-10T00:30:30.724Z,951.4
2018-05-10T00:31:11.254Z,951.38
2018-05-10T00:31:51.762Z,951.36
2018-05-10T00:32:32.292Z,951.35
2018-05-10T00:33:12.812Z,951.39
2018-05-10T00:33:53.342Z,951.35
2018-05-10T00:34:33.880Z,951.39
2018-05-10T00:35:14.398Z,951.39
2018-05-10T00:35:54.908Z,951.39
2018-05-10T00:36:35.433Z,951.41
2018-05-10T00:37:15.957Z,951.4
2018-05-10T00:37:56.484Z,951.39
2018-05-10T00:38:37.010Z,951.39
2018-05-10T00:39:17.539Z,951.4
2018-05-10T00:39:58.074Z,951.4
2018-05-10T00:40:38.588Z,951.37
2018-05-10T00:41:19.122Z,951.37
2018-05-10T00:41:59.617Z,951.4
2018-05-10T00:42:40.122Z,951.41
2018-05-10T00:43:20.634Z,951.39
2018-05-10T00:44:01.155Z,951.4
2018-05-10T00:44:41.686Z,951.42
2018-05-10T00:45:22.225Z,951.42
2018-05-10T00:46:02.752Z,951.41
2018-05-10T00:46:43.277Z,951.43
2018-05-10T00:47:23.801Z,951.44
2018-05-10T00:48:04.324Z,951.42
2018-05-10T00:48:44.860Z,951.41
2018-05-10T00:49:25.387Z,951.45
2018-05-10T00:50:05.905Z,951.45
2018-05-10T00:50:46.437Z,951.44
2018-05-10T00:51:26.956Z,951.44
2018-05-10T00:52:07.481Z,951.45
2018-05-10T00:52:48.006Z,951.45
2018-05-10T00:53:28.530Z,951.44
2018-05-10T00:54:09.062Z,951.46
2018-05-10T00:54:49.589Z,951.47
2018-05-10T00:55:30.115Z,951.47
2018-05-10T00:56:10.646Z,951.44
2018-05-10T00:56:52.040Z,951.44
2018-05-10T00:57:32.566Z,951.44
2018-05-10T00:58:13.086Z,951.45
2018-05-10T00:58:53.616Z,951.46
2018-05-10T00:59:34.143Z,951.46
2018-05-10T01:00:14.665Z,951.45
2018-05-10T01:00:55.191Z,951.48
2018-05-10T01:01:35.721Z,951.5
2018-05-10T01:02:16.243Z,951.51
2018-05-10T01:02:56.771Z,951.47
2018-05-10T01:03:37.289Z,951.48
2018-05-10T01:04:17.812Z,951.48
2018-05-10T01:04:58.405Z,951.52
2018-05-10T01:05:38.865Z,951.5
2018-05-10T01:06:19.405Z,951.5
2018-05-10T01:06:59.918Z,951.52
2018-05-10T01:07:40.442Z,951.48
2018-05-10T01:08:20.974Z,951.51
2018-05-10T01:09:01.498Z,951.52
2018-05-10T01:09:42.025Z,951.54
2018-05-10T01:10:22.562Z,951.54
2018-05-10T01:11:03.077Z,951.5
2018-05-10T01:11:43.599Z,951.53
2018-05-10T01:12:24.125Z,951.53
2018-05-10T01:13:04.648Z,951.55
2018-05-10T01:13:45.184Z,951.54
2018-05-10T01:14:25.710Z,951.54
2018-05-10T01:15:06.233Z,951.54
2018-05-10T01:15:46.763Z,951.56
2018-05-10T01:16:27.291Z,951.53
2018-05-10T01:17:07.813Z,951.52
2018-05-10T01:17:48.342Z,951.56
2018-05-10T01:18:28.866Z,951.53
2018-05-10T01:19:09.404Z,951.57
2018-05-10T01:19:49.931Z,951.53
2018-05-10T01:20:30.456Z,951.52
2018-05-10T01:21:10.983Z,951.54
2018-05-10T01:21:51.512Z,951.55
2018-05-10T01:22:32.038Z,951.55
2018-05-10T01:23:12.566Z,951.54
2018-05-10T01:23:53.090Z,951.52
2018-05-10T01:24:33.616Z,951.55
2018-05-10T01:25:14.147Z,951.57
2018-05-10T01:25:54.683Z,951.51
2018-05-10T01:26:35.211Z,951.58
2018-05-10T01:27:15.743Z,951.52
2018-05-10T01:27:56.259Z,951.53
2018-05-10T01:28:36.776Z,951.53
2018-05-10T01:29:17.306Z,951.53
2018-05-10T01:29:57.837Z,951.54
2018-05-10T01:30:38.355Z,951.57
2018-05-10T01:31:18.876Z,951.56
2018-05-10T01:31:59.395Z,951.56
2018-05-10T01:32:39.926Z,951.57
2018-05-10T01:33:20.451Z,951.57
2018-05-10T01:34:00.977Z,951.59
2018-05-10T01:34:41.510Z,951.56
2018-05-10T01:35:22.037Z,951.59
2018-05-10T01:36:02.559Z,951.58
2018-05-10T01:36:43.090Z,951.6
2018-05-10T01:37:23.616Z,951.61
2018-05-10T01:38:04.147Z,951.65
2018-05-10T01:38:44.674Z,951.61
2018-05-10T01:39:25.208Z,951.63
2018-05-10T01:40:05.728Z,951.59
2018-05-10T01:40:46.262Z,951.58
2018-05-10T01:41:26.793Z,951.62
2018-05-10T01:42:07.315Z,951.59
2018-05-10T01:42:47.846Z,951.63
2018-05-10T01:43:28.373Z,951.6
2018-05-10T01:44:08.896Z,951.57
2018-05-10T01:44:49.419Z,951.59
2018-05-10T01:45:29.946Z,951.6
2018-05-10T01:46:10.548Z,951.62
2018-05-10T01:46:50.999Z,951.58
2018-05-10T01:47:31.526Z,951.61
2018-05-10T01:48:12.053Z,951.61
2018-05-10T01:48:52.583Z,951.59
2018-05-10T01:49:33.100Z,951.57
2018-05-10T01:50:13.648Z,951.59
2018-05-10T01:50:54.153Z,951.61
2018-05-10T01:51:34.670Z,951.56
2018-05-10T01:52:15.198Z,951.59
2018-05-10T01:52:55.727Z,951.62
2018-05-10T01:53:36.247Z,951.61
2018-05-10T01:54:16.772Z,951.6
2018-05-10T01:54:57.289Z,951.58
2018-05-10T01:55:37.817Z,951.62
2018-05-10T01:56:18.340Z,951.61
2018-05-10T01:56:58.872Z,951.59
2018-05-10T01:57:39.406Z,951.57
2018-05-10T01:58:19.936Z,951.59
2018-05-10T01:59:00.471Z,951.58
2018-05-10T01:59:41.003Z,951.57
2018-05-10T02:00:21.531Z,951.59
2018-05-10T02:01:02.047Z,951.58
2018-05-10T02:01:42.614Z,951.59
2018-05-10T02:02:23.089Z,951.59
2018-05-10T02:03:03.622Z,951.59
2018-05-10T02:03:44.161Z,951.6
2018-05-10T02:04:24.690Z,951.59
2018-05-10T02:05:05.212Z,951.6
2018-05-10T02:05:45.740Z,951.53
2018-05-10T02:06:26.264Z,951.57
2018-05-10T02:07:06.792Z,951.56
2018-05-10T02:07:47.349Z,951.56
2018-05-10T02:08:27.878Z,951.55
2018-05-10T02:09:08.400Z,951.54
2018-05-10T02:09:48.932Z,951.56
2018-05-10T02:10:29.467Z,951.59
2018-05-10T02:11:09.991Z,951.55
2018-05-10T02:11:50.521Z,951.55
2018-05-10T02:12:31.049Z,951.6
2018-05-10T02:13:11.577Z,951.58
2018-05-10T02:13:52.105Z,951.6
2018-05-10T02:14:32.629Z,951.59
2018-05-10T02:15:13.156Z,951.58
2018-05-10T02:15:53.686Z,951.63
2018-05-10T02:16:34.209Z,951.59
2018-05-10T02:17:14.733Z,951.57
2018-05-10T02:17:55.261Z,951.61
2018-05-10T02:18:35.791Z,951.62
2018-05-10T02:19:16.312Z,951.61
2018-05-10T02:19:56.836Z,951.62
2018-05-10T02:20:37.358Z,951.59
2018-05-10T02:21:17.879Z,951.62
2018-05-10T02:21:58.408Z,951.62
2018-05-10T02:22:38.931Z,951.63
2018-05-10T02:23:19.449Z,951.66
2018-05-10T02:23:59.974Z,951.67
2018-05-10T02:24:40.499Z,951.68
2018-05-10T02:25:21.027Z,951.65
2018-05-10T02:26:01.555Z,951.69
2018-05-10T02:26:42.078Z,951.66
2018-05-10T02:27:22.607Z,951.7
2018-05-10T02:28:03.136Z,951.68
2018-05-10T02:28:43.660Z,951.67
2018-05-10T02:29:24.193Z,951.7
2018-05-10T02:30:04.723Z,951.67
2018-05-10T02:30:45.246Z,951.67
2018-05-10T02:31:25.775Z,951.68
2018-05-10T02:32:06.299Z,951.7
2018-05-10T02:32:46.843Z,951.71
2018-05-10T02:33:27.341Z,951.67
2018-05-10T02:34:07.872Z,951.67
2018-05-10T02:34:48.399Z,951.68
2018-05-10T02:35:28.920Z,951.69
2018-05-10T02:36:09.441Z,951.68
2018-05-10T02:36:49.960Z,951.72
2018-05-10T02:37:30.482Z,951.7
2018-05-10T02:38:11.004Z,951.68
2018-05-10T02:38:51.520Z,951.7
2018-05-10T02:39:32.047Z,951.68
2018-05-10T02:40:12.576Z,951.66
2018-05-10T02:40:53.100Z,951.67
2018-05-10T02:41:33.624Z,951.68
2018-05-10T02:42:14.155Z,951.68
2018-05-10T02:42:54.684Z,951.71
2018-05-10T02:43:35.214Z,951.71
2018-05-10T02:44:15.737Z,951.65
2018-05-10T02:44:56.338Z,951.68
2018-05-10T02:45:36.787Z,951.66
2018-05-10T02:46:17.308Z,951.7
2018-05-10T02:46:57.836Z,951.63
2018-05-10T02:47:38.367Z,951.64
2018-05-10T02:48:18.890Z,951.69
2018-05-10T02:48:59.414Z,951.66
2018-05-10T02:49:39.948Z,951.66
2018-05-10T02:50:20.473Z,951.67
2018-05-10T02:51:00.993Z,951.63
2018-05-10T02:51:41.514Z,951.66
2018-05-10T02:52:22.045Z,951.62
2018-05-10T02:53:02.573Z,951.68
2018-05-10T02:53:43.096Z,951.68
2018-05-10T02:54:23.623Z,951.65
2018-05-10T02:55:04.152Z,951.66
2018-05-10T02:55:44.677Z,951.69
2018-05-10T02:56:25.218Z,951.73
2018-05-10T02:57:05.743Z,951.71
2018-05-10T02:57:46.270Z,951.68
2018-05-10T02:58:26.797Z,951.71
2018-05-10T02:59:07.313Z,951.77
2018-05-10T02:59:47.854Z,951.72
2018-05-10T03:00:28.372Z,951.76
2018-05-10T03:01:08.904Z,951.76
2018-05-10T03:01:49.427Z,951.75
2018-05-10T03:02:29.965Z,951.77
2018-05-10T03:03:10.490Z,951.73
2018-05-10T03:03:51.019Z,951.77
2018-05-10T03:04:31.545Z,951.75
2018-05-10T03:05:12.070Z,951.74
2018-05-10T03:05:52.598Z,951.71
2018-05-10T03:06:33.120Z,951.76
2018-05-10T03:07:13.656Z,951.73
2018-05-10T03:07:54.175Z,951.77
2018-05-10T03:08:34.707Z,951.76
2018-05-10T03:09:15.228Z,951.75
2018-05-10T03:09:55.754Z,951.72
2018-05-10T03:10:36.286Z,951.74
2018-05-10T03:11:16.812Z,951.77
2018-05-10T03:11:57.339Z,951.73
2018-05-10T03:12:37.858Z,951.76
2018-05-10T03:13:18.383Z,951.74
2018-05-10T03:13:58.911Z,951.73
2018-05-10T03:14:39.440Z,951.76
2018-05-10T03:15:19.971Z,951.76
2018-05-10T03:16:00.517Z,951.72
2018-05-10T03:16:41.037Z,951.74
2018-05-10T03:17:21.564Z,951.78
2018-05-10T03:18:02.092Z,951.78
2018-05-10T03:18:42.641Z,951.8
2018-05-10T03:19:23.174Z,951.77
2018-05-10T03:20:03.722Z,951.77
2018-05-10T03:20:44.247Z,951.78
2018-05-10T03:21:24.796Z,951.79
2018-05-10T03:22:05.327Z,951.78
2018-05-10T03:22:45.857Z,951.81
2018-05-10T03:23:26.383Z,951.76
2018-05-10T03:24:06.913Z,951.79
2018-05-10T03:24:47.440Z,951.77
2018-05-10T03:25:27.961Z,951.78
2018-05-10T03:26:08.504Z,951.76
2018-05-10T03:26:49.029Z,951.77
2018-05-10T03:27:29.551Z,951.77
2018-05-10T03:28:10.083Z,951.82
2018-05-10T03:28:50.605Z,951.81
2018-05-10T03:29:31.136Z,951.8
2018-05-10T03:30:11.662Z,951.82
2018-05-10T03:30:52.185Z,951.8
2018-05-10T03:31:32.718Z,951.8
2018-05-10T03:32:13.248Z,951.79
2018-05-10T03:32:53.771Z,951.78
2018-05-10T03:33:34.301Z,951.82
2018-05-10T03:34:14.827Z,951.81
2018-05-10T03:34:55.367Z,951.8
2018-05-10T03:35:35.894Z,951.81
2018-05-10T03:36:16.420Z,951.83
2018-05-10T03:36:56.963Z,951.81
2018-05-10T03:37:37.475Z,951.85
2018-05-10T03:38:18.011Z,951.85
2018-05-10T03:38:58.535Z,951.85
2018-05-10T03:39:39.058Z,951.86
2018-05-10T03:40:19.591Z,951.82
2018-05-10T03:41:00.124Z,951.82
2018-05-10T03:41:40.649Z,951.82
2018-05-10T03:42:21.181Z,951.81
2018-05-10T03:43:01.702Z,951.81
2018-05-10T03:43:42.231Z,951.83
2018-05-10T03:44:22.757Z,951.83
2018-05-10T03:45:03.280Z,951.82
2018-05-10T03:45:43.810Z,951.81
2018-05-10T03:46:24.414Z,951.8
2018-05-10T03:47:04.870Z,951.8
2018-05-10T03:47:45.394Z,951.83
2018-05-10T03:48:25.920Z,951.79
2018-05-10T03:49:06.452Z,951.86
2018-05-10T03:49:46.980Z,951.82
2018-05-10T03:50:27.997Z,951.85
2018-05-10T03:51:08.511Z,951.87
2018-05-10T03:51:49.082Z,951.87
2018-05-10T03:52:29.612Z,951.86
2018-05-10T03:53:10.129Z,951.88
2018-05-10T03:53:50.649Z,951.89
2018-05-10T03:54:31.187Z,951.89
2018-05-10T03:55:11.693Z,951.89
2018-05-10T03:55:52.218Z,951.94
2018-05-10T03:56:32.746Z,951.92
2018-05-10T03:57:13.524Z,951.93
2018-05-10T03:57:54.029Z,951.97
2018-05-10T03:58:34.659Z,951.95
2018-05-10T03:59:15.192Z,951.94
2018-05-10T03:59:55.713Z,951.92
2018-05-10T04:00:36.240Z,951.97
2018-05-10T04:01:16.818Z,951.94
2018-05-10T04:01:57.343Z,951.93
2018-05-10T04:02:37.982Z,951.95
2018-05-10T04:03:18.500Z,951.93
2018-05-10T04:03:59.019Z,951.98
2018-05-10T04:04:39.549Z,951.96
2018-05-10T04:05:20.082Z,951.98
2018-05-10T04:06:00.654Z,952
2018-05-10T04:06:41.125Z,951.97
2018-05-10T04:07:21.651Z,952.02
2018-05-10T04:08:02.177Z,952.01
2018-05-10T04:08:42.706Z,952.01
2018-05-10T04:09:23.227Z,952.02
2018-05-10T04:10:03.753Z,952.01
2018-05-10T04:10:44.286Z,952.03
2018-05-10T04:11:24.817Z,952.01
2018-05-10T04:12:05.348Z,952.07
2018-05-10T04:12:45.872Z,952.01
2018-05-10T04:13:26.403Z,952.02
2018-05-10T04:14:06.925Z,952.04
2018-05-10T04:14:47.493Z,952.08
2018-05-10T04:15:28.021Z,952.04
2018-05-10T04:16:08.507Z,952.05
2018-05-10T04:16:49.027Z,952.08
2018-05-10T04:17:29.548Z,952.12
2018-05-10T04:18:10.044Z,952.09
2018-05-10T04:18:50.541Z,952.07
2018-05-10T04:19:31.178Z,952.11
2018-05-10T04:20:11.809Z,952.11
2018-05-10T04:20:52.305Z,952.11
2018-05-10T04:21:32.849Z,952.08
2018-05-10T04:22:13.371Z,952.12
2018-05-10T04:22:53.913Z,952.12
2018-05-10T04:23:34.448Z,952.08
2018-05-10T04:24:14.965Z,952.11
2018-05-10T04:24:55.493Z,952.1
2018-05-10T04:25:36.012Z,952.11
2018-05-10T04:26:16.534Z,952.1
2018-05-10T04:26:57.062Z,952.1
2018-05-10T04:27:37.593Z,952.11
2018-05-10T04:28:18.103Z,952.1
2018-05-10T04:28:58.773Z,952.12
2018-05-10T04:29:39.290Z,952.12
2018-05-10T04:30:19.808Z,952.09
2018-05-10T04:31:00.338Z,952.09
2018-05-10T04:31:40.870Z,952.13
2018-05-10T04:32:21.388Z,952.1
2018-05-10T04:33:01.905Z,952.12
2018-05-10T04:33:42.411Z,952.08
2018-05-10T04:34:22.948Z,952.13
2018-05-10T04:35:03.495Z,952.12
2018-05-10T04:35:44.103Z,952.12
2018-05-10T04:36:24.542Z,952.16
2018-05-10T04:37:05.346Z,952.12
2018-05-10T04:37:45.916Z,952.12
2018-05-10T04:38:26.365Z,952.1
2018-05-10T04:39:06.891Z,952.11
2018-05-10T04:39:47.417Z,952.09
2018-05-10T04:40:27.964Z,952.11
2018-05-10T04:41:08.477Z,952.12
2018-05-10T04:41:49.004Z,952.11
2018-05-10T04:42:29.532Z,952.09
2018-05-10T04:43:10.050Z,952.11
2018-05-10T04:43:50.586Z,952.13
2018-05-10T04:44:31.105Z,952.14
2018-05-10T04:45:11.771Z,952.15
2018-05-10T04:45:52.299Z,952.17
2018-05-10T04:46:32.819Z,952.14
2018-05-10T04:47:13.358Z,952.2
2018-05-10T04:47:53.889Z,952.17
2018-05-10T04:48:34.410Z,952.19
2018-05-10T04:49:14.942Z,952.13
2018-05-10T04:49:55.471Z,952.15
2018-05-10T04:50:36.005Z,952.19
2018-05-10T04:51:16.528Z,952.16
2018-05-10T04:51:57.049Z,952.13
2018-05-10T04:52:37.583Z,952.16
2018-05-10T04:53:18.092Z,952.17
2018-05-10T04:53:58.688Z,952.14
2018-05-10T04:54:39.240Z,952.17
2018-05-10T04:55:19.762Z,952.16
2018-05-10T04:56:00.414Z,952.16
2018-05-10T04:56:41.030Z,952.16
2018-05-10T04:57:22.384Z,952.17
2018-05-10T04:58:02.792Z,952.23
2018-05-10T04:58:43.298Z,952.17
2018-05-10T04:59:23.823Z,952.13
2018-05-10T05:00:04.318Z,952.12
2018-05-10T05:00:44.884Z,952.13
2018-05-10T05:01:25.411Z,952.12
2018-05-10T05:02:05.938Z,952.12
2018-05-10T05:02:46.914Z,952.11
2018-05-10T05:03:27.477Z,952.12
2018-05-10T05:04:07.946Z,952.13
2018-05-10T05:04:48.459Z,952.14
2018-05-10T05:05:29.022Z,952.13
2018-05-10T05:06:09.545Z,952.11
2018-05-10T05:06:50.072Z,952.14
2018-05-10T05:07:30.589Z,952.15
2018-05-10T05:08:11.127Z,952.12
2018-05-10T05:08:51.664Z,952.11
2018-05-10T05:09:32.174Z,952.12
2018-05-10T05:10:12.700Z,952.12
2018-05-10T05:10:53.229Z,952.14
2018-05-10T05:11:34.718Z,952.13
2018-05-10T05:12:15.245Z,952.14
2018-05-10T05:12:55.765Z,952.13
2018-05-10T05:13:36.294Z,952.16
2018-05-10T05:14:16.816Z,952.12
2018-05-10T05:14:57.351Z,952.12
2018-05-10T05:15:37.876Z,952.16
2018-05-10T05:16:18.395Z,952.11
2018-05-10T05:16:58.925Z,952.16
2018-05-10T05:17:39.454Z,952.15
2018-05-10T05:18:20.321Z,952.17
2018-05-10T05:19:00.843Z,952.16
2018-05-10T05:19:41.399Z,952.17
2018-05-10T05:20:21.921Z,952.22
2018-05-10T05:21:02.447Z,952.16
2018-05-10T05:21:42.976Z,952.16
2018-05-10T05:22:23.501Z,952.18
2018-05-10T05:23:04.032Z,952.16
2018-05-10T05:23:44.562Z,952.16
2018-05-10T05:24:25.085Z,952.17
2018-05-10T05:25:05.617Z,952.13
2018-05-10T05:25:46.140Z,952.14
2018-05-10T05:26:26.663Z,952.16
2018-05-10T05:27:07.200Z,952.14
2018-05-10T05:27:47.699Z,952.13
2018-05-10T05:28:28.232Z,952.16
2018-05-10T05:29:08.771Z,952.13
2018-05-10T05:29:49.281Z,952.13
2018-05-10T05:30:29.805Z,952.12
2018-05-10T05:31:10.337Z,952.14
2018-05-10T05:31:50.889Z,952.11
2018-05-10T05:32:31.417Z,952.11
2018-05-10T05:33:11.940Z,952.15
2018-05-10T05:33:52.470Z,952.12
2018-05-10T05:34:32.999Z,952.16
2018-05-10T05:35:13.531Z,952.12
2018-05-10T05:35:54.065Z,952.15
2018-05-10T05:36:34.637Z,952.16
2018-05-10T05:37:15.115Z,952.16
2018-05-10T05:37:55.651Z,952.16
2018-05-10T05:38:36.177Z,952.17
2018-05-10T05:39:16.707Z,952.17
2018-05-10T05:39:57.236Z,952.2
2018-05-10T05:40:37.756Z,952.22
2018-05-10T05:41:18.321Z,952.24
2018-05-10T05:41:58.809Z,952.23
2018-05-10T05:42:39.338Z,952.29
2018-05-10T05:43:19.933Z,952.28
2018-05-10T05:44:00.383Z,952.26
2018-05-10T05:44:40.898Z,952.27
2018-05-10T05:45:21.465Z,952.29
2018-05-10T05:46:01.996Z,952.28
2018-05-10T05:46:42.493Z,952.29
2018-05-10T05:47:23.029Z,952.36
2018-05-10T05:48:03.528Z,952.35
2018-05-10T05:48:44.002Z,952.33
2018-05-10T05:49:24.543Z,952.34
2018-05-10T05:50:05.094Z,952.33
2018-05-10T05:50:45.601Z,952.36
2018-05-10T05:51:26.117Z,952.34
2018-05-10T05:52:06.646Z,952.36
2018-05-10T05:52:47.164Z,952.35
2018-05-10T05:53:27.693Z,952.39
2018-05-10T05:54:08.213Z,952.39
2018-05-10T05:54:48.742Z,952.44
2018-05-10T05:55:29.252Z,952.46
2018-05-10T05:56:09.770Z,952.44
2018-05-10T05:56:50.289Z,952.48
2018-05-10T05:57:30.820Z,952.49
2018-05-10T05:58:11.342Z,952.47
2018-05-10T05:58:51.868Z,952.52
2018-05-10T05:59:32.393Z,952.46
2018-05-10T06:00:12.910Z,952.5
2018-05-10T06:00:53.459Z,952.5
2018-05-10T06:01:33.954Z,952.51
2018-05-10T06:02:14.475Z,952.51
2018-05-10T06:02:55.003Z,952.55
2018-05-10T06:03:35.536Z,952.58
2018-05-10T06:04:16.066Z,952.51
2018-05-10T06:04:56.596Z,952.53
2018-05-10T06:05:37.122Z,952.53
2018-05-10T06:06:17.658Z,952.5
2018-05-10T06:06:58.187Z,952.5
2018-05-10T06:07:38.706Z,952.5
2018-05-10T06:08:19.240Z,952.55
2018-05-10T06:08:59.751Z,952.54
2018-05-10T06:09:40.256Z,952.57
2018-05-10T06:10:20.773Z,952.53
2018-05-10T06:11:01.272Z,952.53
2018-05-10T06:11:41.792Z,952.49
2018-05-10T06:12:22.310Z,952.53
2018-05-10T06:13:02.818Z,952.56
2018-05-10T06:13:43.364Z,952.58
2018-05-10T06:14:23.916Z,952.6
2018-05-10T06:15:04.445Z,952.64
2018-05-10T06:15:45.103Z,952.62
2018-05-10T06:16:25.474Z,952.62
2018-05-10T06:17:05.984Z,952.67
2018-05-10T06:17:46.477Z,952.68
2018-05-10T06:18:26.995Z,952.67
2018-05-10T06:19:07.536Z,952.72
2018-05-10T06:19:48.040Z,952.73
2018-05-10T06:20:28.534Z,952.75
2018-05-10T06:21:09.023Z,952.77
2018-05-10T06:21:49.540Z,952.75
2018-05-10T06:22:30.075Z,952.8
2018-05-10T06:23:10.598Z,952.79
2018-05-10T06:23:51.127Z,952.77
2018-05-10T06:24:31.659Z,952.82
2018-05-10T06:25:12.312Z,952.81
2018-05-10T06:25:52.717Z,952.83
2018-05-10T06:26:33.246Z,952.8
2018-05-10T06:27:13.770Z,952.85
2018-05-10T06:27:54.283Z,952.85
2018-05-10T06:28:34.818Z,952.85
2018-05-10T06:29:15.351Z,952.81
2018-05-10T06:29:55.848Z,952.86
2018-05-10T06:30:36.375Z,952.86
2018-05-10T06:31:16.901Z,952.83
2018-05-10T06:31:57.419Z,952.86
2018-05-10T06:32:37.941Z,952.85
2018-05-10T06:33:18.469Z,952.85
2018-05-10T06:33:59.013Z,952.87
2018-05-10T06:34:39.521Z,952.81
2018-05-10T06:35:20.060Z,952.83
2018-05-10T06:36:00.587Z,952.88
2018-05-10T06:36:41.132Z,952.85
2018-05-10T06:37:21.653Z,952.89
2018-05-10T06:38:02.181Z,952.91
2018-05-10T06:38:42.711Z,952.94
2018-05-10T06:39:23.218Z,952.94
2018-05-10T06:40:03.753Z,952.95
2018-05-10T06:40:44.285Z,952.97
2018-05-10T06:41:24.911Z,952.95
2018-05-10T06:42:05.354Z,952.97
2018-05-10T06:42:45.880Z,952.97
2018-05-10T06:43:26.409Z,952.99
2018-05-10T06:44:06.920Z,952.98
2018-05-10T06:44:47.447Z,953.02
2018-05-10T06:45:27.985Z,953.02
2018-05-10T06:46:08.515Z,953
2018-05-10T06:46:49.661Z,953.05
2018-05-10T06:47:30.239Z,953.04
2018-05-10T06:48:11.728Z,953.05
2018-05-10T06:48:52.311Z,953.05
2018-05-10T06:49:32.855Z,953.1
2018-05-10T06:50:13.387Z,953.08
2018-05-10T06:50:53.985Z,953.08
2018-05-10T06:51:34.536Z,953.11
2018-05-10T06:52:15.047Z,953.17
2018-05-10T06:52:55.577Z,953.17
2018-05-10T06:53:36.483Z,953.16
2018-05-10T06:54:17.024Z,953.17
2018-05-10T06:54:57.563Z,953.23
2018-05-10T06:55:38.112Z,953.21
2018-05-10T06:56:18.639Z,953.23
2018-05-10T06:56:59.952Z,953.28
2018-05-10T06:57:40.495Z,953.27
2018-05-10T06:58:21.025Z,953.24
2018-05-10T06:59:01.566Z,953.26
2018-05-10T06:59:42.095Z,953.26
2018-05-10T07:00:22.621Z,953.3
2018-05-10T07:01:03.160Z,953.31
2018-05-10T07:01:43.683Z,953.31
2018-05-10T07:02:24.216Z,953.35
2018-05-10T07:03:04.757Z,953.37
2018-05-10T07:03:45.293Z,953.4
2018-05-10T07:04:25.796Z,953.38
2018-05-10T07:05:06.331Z,953.44
2018-05-10T07:05:46.892Z,953.43
2018-05-10T07:06:27.358Z,953.42
2018-05-10T07:07:07.929Z,953.43
2018-05-10T07:07:48.495Z,953.46
2018-05-10T07:08:29.158Z,953.46
2018-05-10T07:09:09.607Z,953.46
2018-05-10T07:09:50.308Z,953.44
2018-05-10T07:10:30.724Z,953.46
2018-05-10T07:11:17.019Z,953.57
2018-05-10T07:11:57.776Z,953.53
2018-05-10T07:12:38.314Z,953.59
2018-05-10T07:13:18.843Z,953.59
2018-05-10T07:14:00.415Z,953.61
2018-05-10T07:14:42.206Z,953.6
2018-05-10T07:15:22.974Z,953.57
2018-05-10T07:16:04.735Z,953.57
2018-05-10T07:16:45.456Z,953.58
2018-05-10T07:17:26.119Z,953.61
2018-05-10T07:18:09.530Z,953.66
2018-05-10T07:18:50.192Z,953.65
2018-05-10T07:19:30.827Z,953.62
2018-05-10T07:20:11.433Z,953.59
2018-05-10T07:20:51.972Z,953.67
2018-05-10T07:21:33.186Z,953.64
2018-05-10T07:22:14.025Z,953.7
2018-05-10T07:22:55.503Z,953.65
2018-05-10T07:23:36.951Z,953.7
2018-05-10T07:24:17.502Z,953.68
2018-05-10T07:24:58.372Z,953.71
2018-05-10T07:25:38.854Z,953.73
2018-05-10T07:26:19.399Z,953.69
2018-05-10T07:26:59.994Z,953.66
2018-05-10T07:27:40.724Z,953.76
2018-05-10T07:28:21.261Z,953.76
2018-05-10T07:29:02.378Z,953.8
2018-05-10T07:29:42.953Z,953.78
2018-05-10T07:30:24.426Z,953.84
2018-05-10T07:31:04.982Z,953.82
2018-05-10T07:31:45.558Z,953.84
2018-05-10T07:32:26.084Z,953.84
2018-05-10T07:33:07.234Z,953.84
2018-05-10T07:33:47.822Z,953.84
2018-05-10T07:34:28.393Z,953.86
2018-05-10T07:35:08.960Z,953.86
2018-05-10T07:35:49.502Z,953.9
2018-05-10T07:36:30.041Z,953.93
2018-05-10T07:37:10.593Z,953.89
2018-05-10T07:37:53.446Z,953.91
2018-05-10T07:38:34.049Z,953.89
2018-05-10T07:39:14.587Z,953.95
2018-05-10T07:39:55.133Z,953.94
2018-05-10T07:40:35.745Z,953.94
2018-05-10T07:41:16.288Z,953.91
2018-05-10T07:41:56.900Z,953.94
2018-05-10T07:42:37.377Z,953.89
2018-05-10T07:43:18.125Z,953.92
2018-05-10T07:43:58.847Z,953.94
2018-05-10T07:44:40.067Z,953.94
2018-05-10T07:45:20.605Z,953.94
2018-05-10T07:46:01.147Z,953.96
2018-05-10T07:46:41.691Z,953.94
2018-05-10T07:47:22.503Z,953.97
2018-05-10T07:48:02.925Z,953.92
2018-05-10T07:48:43.596Z,953.98
2018-05-10T07:49:24.167Z,954.01
2018-05-10T07:50:04.717Z,954.05
2018-05-10T07:50:45.261Z,954.06
2018-05-10T07:51:25.809Z,954.04
2018-05-10T07:52:06.358Z,954.05
2018-05-10T07:52:46.882Z,954.04
2018-05-10T07:53:27.430Z,954.08
2018-05-10T07:54:08.299Z,954.07
2018-05-10T07:54:48.832Z,954.08
2018-05-10T07:55:29.393Z,954.11
2018-05-10T07:56:09.941Z,954.1
2018-05-10T07:56:50.504Z,954.09
2018-05-10T07:57:31.025Z,954.11
2018-05-10T07:58:11.567Z,954.05
2018-05-10T07:58:52.109Z,954.11
2018-05-10T07:59:32.640Z,954.09
2018-05-10T08:00:13.428Z,954.13
2018-05-10T08:00:53.749Z,954.14
2018-05-10T08:01:34.274Z,954.13
2018-05-10T08:02:14.904Z,954.2
2018-05-10T08:02:55.365Z,954.14
2018-05-10T08:03:35.898Z,954.23
2018-05-10T08:04:16.437Z,954.16
2018-05-10T08:04:56.970Z,954.16
2018-05-10T08:05:37.511Z,954.26
2018-05-10T08:06:18.059Z,954.21
2018-05-10T08:06:58.598Z,954.2
2018-05-10T08:07:39.142Z,954.26
2018-05-10T08:08:19.687Z,954.28
2018-05-10T08:09:00.218Z,954.32
2018-05-10T08:09:40.753Z,954.3
2018-05-10T08:10:21.283Z,954.27
2018-05-10T08:11:01.830Z,954.29
2018-05-10T08:11:42.362Z,954.34
2018-05-10T08:12:22.901Z,954.39
2018-05-10T08:13:03.445Z,954.39
2018-05-10T08:13:43.988Z,954.34
2018-05-10T08:14:24.589Z,954.37
2018-05-10T08:15:05.067Z,954.37
2018-05-10T08:15:45.604Z,954.37
2018-05-10T08:16:26.134Z,954.04
2018-05-10T08:17:06.753Z,954.36
2018-05-10T08:17:47.180Z,954.39
2018-05-10T08:18:27.718Z,954.42
2018-05-10T08:19:08.258Z,954.36
2018-05-10T08:19:48.787Z,954.03
2018-05-10T08:20:29.303Z,954.15
2018-05-10T08:21:09.835Z,954.45
2018-05-10T08:21:50.368Z,954.46
2018-05-10T08:22:30.897Z,954.09
2018-05-10T08:23:11.448Z,954.16
2018-05-10T08:23:51.969Z,954.48
2018-05-10T08:24:32.516Z,954.5
2018-05-10T08:25:13.080Z,954.45
2018-05-10T08:25:53.615Z,954.13
2018-05-10T08:26:34.148Z,954.11
2018-05-10T08:27:14.690Z,954.47